Aviation Digital Data Service (ADDS)

Output produced by METARs form (1901 UTC 19 September 2017)
found at http://www.aviationweather.gov/adds/metars/
 
KBOS 191854Z 03016KT 10SM OVC007 18/17 A3004 RMK AO2 SLP170 T01830172
KBOS 191727Z 1918/2024 02013KT 6SM -RA BR OVC005 
     FM200400 03012G25KT 4SM -RA BR OVC003 
     FM201000 03014G28KT 2SM BR VCSH OVC003 
     FM201700 04018G28KT 3SM BR VCSH OVC008
       
KLGA 191851Z 05017KT 9SM -RA BKN034 BKN043 OVC050 23/19 A2992 RMK AO2 RAB05 SLP132 P0000 T02330194
KLGA 191736Z 1918/2018 04018G25KT 6SM -SHRA BR SCT025 OVC100 
     FM192200 02019G27KT P6SM VCSH SCT025 BKN035 
     FM200300 36018G27KT P6SM BKN025 
     FM201500 34017G22KT P6SM BKN030
       
KJFK 191851Z 02017G24KT 2SM R04R/3000VP6000FT RA BR BKN050 BKN065 OVC075 21/19 A2992 RMK AO2 PK WND 02027/1829 SLP131 P0019 T02060194
KJFK 191736Z 1918/2024 03020G30KT 6SM -SHRA BR SCT025 BKN090 
     FM192200 02020G30KT P6SM VCSH SCT025 BKN040 
     FM200300 36022G30KT P6SM OVC025 
     FM201400 34018G25KT P6SM BKN035 
     FM202100 34015KT P6SM SCT035 BKN150
       
KEWR 191851Z 04015G26KT 10SM FEW030 BKN039 OVC055 26/17 A2991 RMK AO2 PK WND 03026/1809 SLP128 T02610172
KEWR 191736Z 1918/2024 03017G25KT 6SM -SHRA SCT025 BKN040 
     FM192200 02018G25KT P6SM VCSH SCT035 BKN050 
     FM200300 36017G24KT P6SM BKN025 
     FM201500 34015G20KT P6SM BKN035 
     FM202000 34014KT P6SM SCT035 BKN150
       
KPHL 191854Z 06006KT 8SM -RA BKN035 BKN046 OVC100 24/19 A2990 RMK AO2 RAB00 SLP123 P0000 T02390189 $
KPHL 191720Z 1918/2024 02015G25KT P6SM VCSH SCT025 BKN040 
     TEMPO 1918/1922 BKN025 
     FM192200 01012G22KT P6SM BKN030 
     FM200200 36012KT P6SM BKN045 
     FM200800 33010KT P6SM BKN050
       
KBWI 191854Z 01009KT 10SM FEW026 SCT048 SCT160 SCT250 28/19 A2991 RMK AO2 SLP127 T02780194
KBWI 191720Z 1918/2024 33010G18KT P6SM SCT030 BKN050 
     FM200000 32006KT P6SM SCT050 SCT130 
     FM201500 32008G16KT P6SM SCT050 SCT200
       
KDCA 191852Z 35014KT 10SM SCT040 SCT230 28/19 A2993 RMK AO2 SLP135 T02830194
KDCA 191720Z 1918/2018 34010G18KT P6SM SCT035 
     FM200000 34008KT P6SM FEW200 
     FM201500 33008G16KT P6SM SCT050 SCT200
       
KIAD 191852Z 36010KT 10SM SCT035 SCT250 27/19 A2995 RMK AO2 SLP140 T02670189
KIAD 191720Z 1918/2024 35008G16KT P6SM SCT035 
     FM200000 33005KT P6SM FEW200 
     FM200900 VRB03KT 6SM BR FEW200 
     FM201200 VRB03KT P6SM FEW200 
     FM201500 33010KT P6SM SCT050 SCT200
       
KCLT 191852Z VRB03KT 10SM SCT038 BKN046 29/19 A2999 RMK AO2 SLP148 T02940194
KCLT 191738Z 1918/2018 29004KT P6SM SCT035 
     FM192200 24003KT P6SM FEW070 SCT100 
     FM201500 26004KT P6SM SCT050
       
KATL 191852Z VRB03KT 10SM FEW060 FEW250 31/16 A2999 RMK AO2 SLP143 T03060161
KATL 191720Z 1918/2024 28004KT P6SM FEW050 
     FM192000 27005KT P6SM SCT060 
     FM200200 25004KT P6SM FEW050 
     FM201600 29006KT P6SM VCSH SCT050
       
KTPA 191853Z 01010KT 10SM FEW050TCU FEW090 33/17 A2994 RMK AO2 RAB17E23 SLP138 TCU SW P0000 T03330172 $
KTPA 191732Z 1918/2018 01007KT P6SM SCT035 BKN050 
     FM192000 34008KT P6SM BKN050 
     FM200200 06004KT P6SM FEW050 SCT080 
     FM201500 05006KT P6SM FEW035 SCT080
       
KMCO 191853Z 09005KT 10SM FEW035 OVC070 27/24 A2995 RMK AO2 SLP142 T02720239
KMCO 191746Z 1918/2018 05010KT P6SM VCSH SCT035 BKN080 
     TEMPO 1918/1919 5SM SHRA BKN035 
     FM192300 07007KT P6SM SCT040 BKN100 
     FM200600 VRB04KT P6SM FEW040 SCT250
       
KMIA 191853Z 28005KT 10SM FEW040 FEW250 34/22 A2990 RMK AO2 SLP126 T03390222
KMIA 191734Z 1918/2018 25008KT P6SM SCT030 SCT100 
     FM192100 11008KT P6SM SCT035 SCT080 SCT250 
     FM200100 VRB05KT P6SM FEW030 SCT250
       
KFLL 191853Z 07008KT 10SM FEW035 FEW250 33/26 A2990 RMK AO2 SLP123 T03280256
KFLL 191734Z 1918/2018 36006KT P6SM VCSH SCT035 BKN060 
     FM192100 10010KT P6SM SCT035 SCT080 SCT250 
     FM200200 VRB05KT P6SM FEW030 SCT250
       
KDTW 191853Z 11003KT 3SM -RA BR FEW010 BKN045 OVC080 21/21 A2998 RMK AO2 RAB30 SLP148 P0000 T02110206 $
KDTW 191734Z 1918/2024 06005KT P6SM SCT012 BKN040 OVC090 
     TEMPO 1918/1919 3SM SHRA BR OVC008 
     FM191900 10005KT P6SM BKN018 OVC040 
     FM192100 12005KT P6SM BKN022 OVC080 
     FM200000 16004KT 4SM BR SCT010 OVC060 
     TEMPO 2000/2003 3SM -SHRA BR BKN010 OVC035 
     FM201400 17006KT P6SM BKN028 OVC100
       
KORD 191851Z 06011KT 10SM SCT029 BKN150 BKN250 25/18 A2993 RMK AO2 SLP132 T02500183
KORD 191723Z 1918/2024 08008KT P6SM FEW020 BKN045 BKN100 
     FM200200 11005KT P6SM FEW030 SCT200 
     FM200900 VRB03KT 3SM BR SCT008 
     TEMPO 2009/2013 1SM BR BKN008 
     FM201400 17008KT 6SM BR FEW015 SCT040 
     FM201800 18012G19KT P6SM SCT060 SCT250
       
KMDW 191853Z 06010KT 10SM FEW025 FEW110 SCT250 24/18 A2993 RMK AO2 SLP127 T02440178
KMDW 191723Z 1918/2018 08008KT P6SM FEW020 BKN045 BKN100 
     FM200200 11005KT P6SM FEW030 SCT200 
     FM200900 VRB03KT 4SM BR SCT008 
     TEMPO 2009/2013 2SM BR BKN008 
     FM201400 16007KT 6SM BR FEW015 SCT040
       
KMSP 191853Z 14014KT 10SM BKN034 25/18 A2982 RMK AO2 SLP094 T02500178
KMSP 191743Z 1918/2024 14014G22KT P6SM SCT025 BKN050 
     FM192300 14015G22KT P6SM SCT025 
     FM200500 14018G25KT P6SM BKN050 WS018/16050KT 
     FM200900 15015G22KT 6SM SHRA VCTS BKN020CB OVC040 WS018/17050KT 
     FM201100 18012KT P6SM BKN025 
     FM201600 27010KT P6SM SKC
       
KMEM 191854Z 24004KT 10SM FEW042 32/22 A2993 RMK AO2 SLP131 T03220217
KMEM 191725Z 1918/2018 25008KT P6SM SCT045 
     FM200000 19005KT P6SM FEW250
       
KDFW 191853Z 18012G19KT 10SM FEW050 SCT250 34/22 A2985 RMK AO2 SLP097 T03440222
KDFW 191740Z 1918/2024 18014KT P6SM SCT040
       
KIAH 191853Z 19007KT 10SM SCT038 BKN250 33/23 A2992 RMK AO2 LTG DSNT E SLP130 CB DSNT E MOV NE TCU DSNT SE T03330228
KIAH 191722Z 1918/2024 19008KT P6SM VCSH SCT025 BKN250 
     FM192200 15010KT P6SM SCT035 BKN250 
     FM200300 16006KT P6SM SCT020 SCT250 
     FM200900 17004KT P6SM SCT015 
     FM201500 17008KT P6SM BKN025 
     FM201800 18008KT P6SM VCSH SCT025 BKN040
       
KDEN 191853Z 21006G15KT 10SM FEW100 SCT140 BKN220 28/M12 A2964 RMK AO2 SLP952 T02831117
KDEN 191855Z 1919/2024 19014KT P6SM FEW100 SCT140 BKN220 
     FM192000 25018G28KT P6SM FEW100 SCT140 SCT220 
     FM200100 24013KT P6SM FEW120 SCT200 
     FM200400 01015G25KT P6SM SCT080 SCT120 
     FM200600 06010KT P6SM SCT080 SCT120 
     FM200900 15010KT P6SM SCT120 
     FM201900 17015KT P6SM FEW120 SCT200
       
KSLC 191854Z 33003KT 10SM FEW045 FEW080 SCT100 BKN130 13/03 A2995 RMK AO2 SLP106 SH DSNT N-NE T01330033
KSLC 191725Z 1918/2024 35006KT P6SM VCSH SCT050 BKN070 
     FM200000 32007KT P6SM SCT090 
     FM200800 15006KT P6SM SCT090
       
KSEA 191853Z 21010KT 10SM SCT018 BKN030 BKN120 14/09 A2976 RMK AO2 SLP082 T01440094 $
KSEA 191722Z 1918/2024 18010KT P6SM VCSH SCT025 BKN050 
     FM192200 VRB04KT P6SM -SHRA SCT025 BKN050 
     FM201200 VRB03KT P6SM VCSH BKN020 BKN040 
     FM201700 36006KT P6SM SCT030 BKN060
       
KSFO 191856Z 05003KT 10SM FEW030 BKN200 20/10 A3004 RMK AO2 SLP173 T02000100
KSFO 191740Z 1918/2024 30011KT P6SM FEW015 FEW250 
     FM192000 28018KT P6SM FEW018 FEW250 
     FM192200 28021G28KT P6SM FEW250 
     FM200500 28016G22KT P6SM FEW250 
     FM201000 28014KT P6SM SCT015 
     TEMPO 2013/2017 BKN014 
     FM201800 28016KT P6SM FEW018 
     FM202100 27018G26KT P6SM SKC
       
KLAX 191853Z 25008KT 10SM BKN024 OVC033 21/16 A2994 RMK AO2 SLP136 T02110161
KLAX 191735Z 1918/2024 16004KT P6SM BKN022 OVC035 
     FM192100 26012KT P6SM SCT035 
     FM200100 26006KT P6SM BKN015 
     FM200700 VRB03KT P6SM OVC015 
     FM201500 22006KT P6SM OVC022 
     FM202000 26012KT P6SM BKN035
       
KSAN 191851Z 22008KT 10SM FEW027 22/14 A2995 RMK AO2 SLP142 T02220139
KSAN 191746Z 1918/2024 19007KT P6SM SCT025 SCT035 
     FM192000 24010KT P6SM SCT025 
     FM200200 18005KT P6SM OVC025 
     FM201900 22008KT P6SM SCT025
       
KLAS 191856Z 17009KT 130V210 10SM SCT250 29/06 A2979 RMK AO2 SLP064 T02940056
KLAS 191727Z 1918/2024 19010G18KT P6SM BKN250 
     FM191900 22012G22KT P6SM SCT250 
     FM200300 21010KT P6SM SCT250 
     FM200900 VRB06KT P6SM FEW250 
     FM201900 20012G20KT P6SM FEW250
       
KPHX 191851Z 20012G18KT 10SM FEW095 FEW250 34/09 A2984 RMK AO2 SLP083 T03390094
KPHX 191859Z 1919/2024 24012G20KT P6SM SKC 
     FM200200 24010KT P6SM SKC 
     FM200800 10006KT P6SM SKC 
     FM202100 24012KT P6SM SKC
       
KSDF 191856Z 21005KT 10SM BKN019 BKN050 24/19 A2995 RMK AO2 SLP138 T02440194
KSDF 191730Z 1918/2024 19005KT P6SM SCT025 BKN090 
     FM200900 VRB03KT 4SM BR FEW030 SCT250 
     FM201400 21005KT P6SM SCT040 SCT250
       
KIND 191854Z 21004KT 10SM SCT027 SCT032 BKN120 26/20 A2992 RMK AO2 SLP126 T02560200
KIND 191721Z 1918/2024 23009KT P6SM FEW015 BKN030 
     FM192000 23007KT P6SM VCTS SCT035CB BKN250 
     FM200100 21003KT P6SM SCT250 
     FM201100 VRB03KT 5SM BR BKN020 
     FM201400 20006KT P6SM SCT025